Time;durP1;ratioP1;P1;durP2;ratioP2;P2;SDS_P1;SDS_P2;PMS_P1;PMS_P2;Temp;Humidity;BMP_temperature;BMP_pressure;BME280_temperature;BME280_humidity;BME280_pressure;Samples;Min_cycle;Max_cycle;Signal;HPM_P1;HPM_P2
2022/01/08 00:00:39;;;;;;;20.13;13.10;;;;;;;-0.42;97.78;100820.31;2063174;28;45284;-76
2022/01/08 00:01:41;;;;;;;27.08;13.82;;;;;;;-0.40;98.05;100822.09;2064762;28;20031;-74
2022/01/08 00:02:44;;;;;;;23.85;13.23;;;;;;;-0.39;97.69;100810.75;2063512;28;45516;-74
2022/01/08 00:03:46;;;;;;;25.55;14.25;;;;;;;-0.40;98.43;100822.09;2063676;28;45908;-74
2022/01/08 00:04:47;;;;;;;26.65;14.68;;;;;;;-0.40;98.12;100816.84;2063475;28;45782;-74
2022/01/08 00:05:49;;;;;;;21.42;13.88;;;;;;;-0.42;97.52;100818.56;2065421;28;46179;-74
2022/01/08 00:06:51;;;;;;;24.08;14.00;;;;;;;-0.42;97.73;100818.56;2071814;28;43146;-74
2022/01/08 00:07:54;;;;;;;25.83;15.05;;;;;;;-0.42;98.07;100823.81;2071320;28;44022;-74
2022/01/08 00:08:56;;;;;;;22.70;13.20;;;;;;;-0.44;97.67;100825.53;2072313;28;34730;-74
2022/01/08 00:09:58;;;;;;;23.85;13.82;;;;;;;-0.46;97.26;100829.91;2071889;28;44393;-74
2022/01/08 00:11:00;;;;;;;21.70;12.43;;;;;;;-0.47;98.09;100822.84;2071573;28;46201;-75
2022/01/08 00:12:02;;;;;;;23.17;12.70;;;;;;;-0.47;97.83;100825.47;2071974;28;43255;-73
2022/01/08 00:13:08;;;;;;;22.95;13.60;;;;;;;-0.50;97.49;100822.81;2070816;28;37729;-74
2022/01/08 00:14:14;;;;;;;23.45;14.15;;;;;;;-0.46;98.52;100831.66;2071656;28;46053;-73
2022/01/08 00:15:16;;;;;;;24.48;13.25;;;;;;;-0.44;97.96;100829.94;2071895;28;43895;-74
2022/01/08 00:16:20;;;;;;;23.00;13.55;;;;;;;-0.43;97.83;100829.97;2071373;28;45285;-73
2022/01/08 00:17:23;;;;;;;26.40;14.00;;;;;;;-0.37;97.96;100833.59;2071398;28;31452;-73
2022/01/08 00:18:25;;;;;;;28.35;14.55;;;;;;;-0.36;97.89;100832.69;2071748;28;45174;-73
2022/01/08 00:19:29;;;;;;;24.45;13.90;;;;;;;-0.33;98.37;100824.88;2072719;28;43934;-73
2022/01/08 00:20:31;;;;;;;22.83;12.77;;;;;;;-0.36;98.15;100828.31;2072544;28;30563;-73
2022/01/08 00:21:33;;;;;;;25.67;14.15;;;;;;;-0.34;98.31;100826.63;2071446;28;45895;-74
2022/01/08 00:22:35;;;;;;;24.90;14.15;;;;;;;-0.35;98.25;100826.59;2072227;28;45966;-73
2022/01/08 00:23:37;;;;;;;21.67;13.10;;;;;;;-0.36;98.25;100823.06;2072891;28;27301;-74
2022/01/08 00:24:39;;;;;;;24.23;14.57;;;;;;;-0.31;98.13;100833.69;2071593;28;47602;-73
2022/01/08 00:25:41;;;;;;;24.50;13.80;;;;;;;-0.31;98.07;100833.69;2072157;28;43472;-73
2022/01/08 00:26:44;;;;;;;27.10;14.30;;;;;;;-0.29;98.02;100837.22;2072831;28;36796;-72
2022/01/08 00:27:46;;;;;;;29.35;15.40;;;;;;;-0.27;98.20;100825.91;2070316;28;44473;-73
2022/01/08 00:28:48;;;;;;;27.35;15.25;;;;;;;-0.27;98.19;100828.53;2071097;28;31792;-73
2022/01/08 00:29:52;;;;;;;28.83;14.57;;;;;;;-0.24;97.83;100835.56;2071724;28;35261;-73
2022/01/08 00:30:54;;;;;;;24.85;14.60;;;;;;;-0.24;97.63;100832.94;2071490;28;44766;-73
2022/01/08 00:31:55;;;;;;;32.33;15.45;;;;;;;-0.25;97.57;100828.53;2071758;28;45896;-72
2022/01/08 00:32:59;;;;;;;22.85;13.70;;;;;;;-0.24;98.12;100822.44;2071726;28;46257;-72
2022/01/08 00:34:00;;;;;;;26.13;13.57;;;;;;;-0.27;97.86;100824.97;2071659;28;44415;-73
2022/01/08 00:35:03;;;;;;;28.17;14.25;;;;;;;-0.31;97.90;100831.06;2071631;28;46631;-73
2022/01/08 00:36:06;;;;;;;28.55;14.20;;;;;;;-0.29;98.25;100831.97;2071247;28;43348;-72
2022/01/08 00:37:08;;;;;;;28.17;14.35;;;;;;;-0.34;97.81;100831.91;2070965;28;44045;-72
2022/01/08 00:38:09;;;;;;;29.50;15.48;;;;;;;-0.35;97.82;100827.47;2070623;28;44471;-72
2022/01/08 00:39:11;;;;;;;25.27;15.32;;;;;;;-0.39;97.99;100829.16;2071133;28;45214;-72
2022/01/08 00:40:13;;;;;;;27.58;14.43;;;;;;;-0.37;97.77;100829.19;2071876;28;24764;-72
2022/01/08 00:41:15;;;;;;;28.40;14.98;;;;;;;-0.41;97.35;100830.00;2071304;28;44826;-72
2022/01/08 00:42:17;;;;;;;26.73;15.40;;;;;;;-0.40;97.54;100832.63;2071701;28;44250;-72
2022/01/08 00:43:19;;;;;;;29.65;15.70;;;;;;;-0.38;98.00;100824.78;2071477;28;44319;-72
2022/01/08 00:44:21;;;;;;;26.95;15.02;;;;;;;-0.43;97.52;100827.34;2071625;28;43656;-72
2022/01/08 00:45:23;;;;;;;32.95;15.50;;;;;;;-0.43;98.30;100823.78;2071218;28;45844;-72
2022/01/08 00:46:25;;;;;;;30.33;15.68;;;;;;;-0.44;98.01;100825.53;2071608;28;45994;-74
2022/01/08 00:47:27;;;;;;;29.27;16.30;;;;;;;-0.49;97.56;100835.09;2072223;28;26513;-72
2022/01/08 00:48:28;;;;;;;31.63;15.55;;;;;;;-0.48;97.90;100839.50;2070787;28;46746;-72
2022/01/08 00:49:32;;;;;;;29.83;16.38;;;;;;;-0.50;98.03;100837.69;2071575;28;43404;-72
2022/01/08 00:50:34;;;;;;;29.50;16.65;;;;;;;-0.51;98.28;100839.44;2070444;28;43407;-72
2022/01/08 00:51:36;;;;;;;35.03;17.42;;;;;;;-0.51;97.70;100838.56;2070948;28;44425;-72
2022/01/08 00:52:42;;;;;;;30.02;16.10;;;;;;;-0.48;97.54;100836.88;2071996;28;27530;-72
2022/01/08 00:53:43;;;;;;;33.78;17.13;;;;;;;-0.45;98.33;100833.41;2071537;28;45586;-72
2022/01/08 00:54:45;;;;;;;33.03;17.05;;;;;;;-0.48;97.97;100838.63;2070855;28;44958;-72
2022/01/08 00:55:47;;;;;;;32.85;17.33;;;;;;;-0.49;97.84;100829.81;2071804;28;29965;-72
2022/01/08 00:56:50;;;;;;;33.30;18.17;;;;;;;-0.48;98.07;100836.88;2072153;28;45816;-72
2022/01/08 00:57:52;;;;;;;34.63;17.77;;;;;;;-0.48;98.39;100828.97;2071620;28;44160;-72
2022/01/08 00:58:53;;;;;;;34.63;18.17;;;;;;;-0.43;98.48;100831.69;2071807;28;30293;-72
2022/01/08 00:59:55;;;;;;;38.25;18.98;;;;;;;-0.44;98.68;100835.19;2071540;28;43408;-71
2022/01/08 01:00:57;;;;;;;36.42;19.08;;;;;;;-0.39;98.27;100834.41;2071393;28;45663;-72
2022/01/08 01:02:00;;;;;;;38.30;19.77;;;;;;;-0.38;98.60;100835.28;2071448;28;46061;-72
2022/01/08 01:03:02;;;;;;;32.97;18.13;;;;;;;-0.36;98.22;100827.44;2071308;28;44316;-72
2022/01/08 01:04:04;;;;;;;34.95;17.95;;;;;;;-0.35;98.74;100824.84;2070647;28;46473;-72
2022/01/08 01:05:07;;;;;;;40.50;19.40;;;;;;;-0.32;98.54;100835.44;2071746;28;31743;-72
2022/01/08 01:06:09;;;;;;;35.83;18.83;;;;;;;-0.28;98.83;100825.88;2071250;28;44146;-72
2022/01/08 01:07:13;;;;;;;41.33;19.55;;;;;;;-0.25;98.60;100820.63;2071369;28;46665;-72
2022/01/08 01:08:14;;;;;;;38.85;19.98;;;;;;;-0.21;98.75;100828.63;2071548;28;42472;-73
2022/01/08 01:09:16;;;;;;;35.55;18.95;;;;;;;-0.19;98.26;100818.13;2072076;28;26474;-73
2022/01/08 01:10:18;;;;;;;37.58;19.77;;;;;;;-0.16;98.78;100822.56;2072230;28;43482;-72
2022/01/08 01:11:20;;;;;;;37.72;19.73;;;;;;;-0.14;98.56;100813.84;2071944;28;36757;-74
2022/01/08 01:12:21;;;;;;;36.35;20.30;;;;;;;-0.12;98.64;100822.66;2072703;28;45235;-73
2022/01/08 01:13:39;;;;;;;36.78;19.13;;;;;;;-0.09;98.45;100816.56;2072600;28;44873;-73
2022/01/08 01:14:41;;;;;;;36.83;18.83;;;;;;;-0.06;98.02;100814.88;2073230;28;31814;-73
2022/01/08 01:15:43;;;;;;;34.72;20.08;;;;;;;-0.05;98.52;100808.75;2073874;28;23247;-73
2022/01/08 01:16:45;;;;;;;37.05;20.05;;;;;;;-0.05;98.53;100811.38;2072387;28;44351;-72
2022/01/08 01:17:47;;;;;;;39.33;19.65;;;;;;;-0.04;98.40;100807.88;2072715;28;45126;-73
2022/01/08 01:18:49;;;;;;;34.95;19.00;;;;;;;-0.05;97.95;100798.22;2071696;28;44931;-72
2022/01/08 01:19:51;;;;;;;33.83;18.92;;;;;;;-0.03;98.25;100801.78;2072082;28;45764;-73
2022/01/08 01:20:52;;;;;;;37.85;20.35;;;;;;;-0.04;98.06;100807.88;2072747;28;46036;-73
2022/01/08 01:21:56;;;;;;;39.80;19.83;;;;;;;-0.04;98.20;100799.97;2072553;28;43363;-72
2022/01/08 01:24:07;;;;;;;34.95;18.98;;;;;;;-0.02;98.04;100798.28;2073043;28;44535;-73
2022/01/08 01:25:12;;;;;;;38.35;19.63;;;;;;;-0.01;98.03;100810.56;2072266;28;44201;-73
2022/01/08 01:26:20;;;;;;;36.30;19.58;;;;;;;0.01;97.48;100815.00;2072775;28;31699;-72
2022/01/08 01:27:56;;;;;;;35.95;19.65;;;;;;;0.00;97.58;100811.47;2073294;28;44083;-73
2022/01/08 01:28:57;;;;;;;30.48;17.42;;;;;;;0.02;97.92;100803.59;2072660;28;31203;-73
2022/01/08 01:30:14;;;;;;;34.58;18.13;;;;;;;0.02;97.69;100812.41;2072754;28;44801;-72
2022/01/08 01:47:01;;;;;;;;;;;;;;;-0.30;97.18;100806.53;2064857;28;44683;-80
2022/01/08 01:48:05;;;;;;;32.05;17.60;;;;;;;-0.31;97.74;100810.88;2064549;28;43601;-80
2022/01/08 01:49:07;;;;;;;33.33;17.00;;;;;;;-0.35;97.70;100800.28;2064503;28;46177;-80
2022/01/08 01:50:09;;;;;;;32.88;18.08;;;;;;;-0.38;97.78;100814.25;2064638;28;43400;-81
2022/01/08 01:51:23;;;;;;;37.10;19.00;;;;;;;-0.40;97.63;100802.81;2064466;28;44255;-80
2022/01/08 01:52:25;;;;;;;35.78;20.27;;;;;;;-0.45;97.75;100802.75;2063722;28;44780;-80
2022/01/08 01:53:27;;;;;;;36.38;19.25;;;;;;;-0.47;97.50;100801.81;2070730;28;44445;-81
2022/01/08 01:54:30;;;;;;;35.17;18.27;;;;;;;-0.51;98.16;100799.09;2064075;28;46351;-80
2022/01/08 01:55:32;;;;;;;35.38;17.50;;;;;;;-0.54;97.90;100797.28;2064900;28;27072;-81
2022/01/08 01:56:35;;;;;;;40.60;19.50;;;;;;;-0.52;97.90;100798.22;2055212;28;44040;-81
2022/01/08 01:57:37;;;;;;;34.53;18.83;;;;;;;-0.54;98.03;100799.91;2056301;28;45969;-80
2022/01/08 01:58:39;;;;;;;37.20;19.42;;;;;;;-0.55;97.79;100798.16;2064350;28;20153;-81
2022/01/08 01:59:41;;;;;;;39.03;20.50;;;;;;;-0.56;97.94;100803.38;2064107;28;46215;-81
2022/01/08 02:00:45;;;;;;;36.20;19.38;;;;;;;-0.57;98.48;100807.75;2071478;28;42914;-81
2022/01/08 02:01:47;;;;;;;41.80;20.30;;;;;;;-0.57;98.42;100799.88;2064251;28;46147;-81
2022/01/08 02:02:49;;;;;;;41.03;20.80;;;;;;;-0.62;98.21;100801.53;2064336;28;46255;-81
2022/01/08 02:03:54;;;;;;;39.28;21.13;;;;;;;-0.66;98.21;100805.84;2064574;28;43176;-81
2022/01/08 02:04:56;;;;;;;43.78;21.58;;;;;;;-0.64;97.75;100808.50;2064339;28;44904;-81
2022/01/08 02:05:58;;;;;;;34.97;18.48;;;;;;;-0.70;97.82;100809.25;2063977;28;43269;-81
2022/01/08 02:07:00;;;;;;;36.92;20.17;;;;;;;-0.66;98.67;100812.84;2064324;28;29860;-81
2022/01/08 02:08:02;;;;;;;41.60;20.33;;;;;;;-0.69;98.49;100812.75;2063689;28;45654;-81
2022/01/08 02:09:04;;;;;;;43.30;21.77;;;;;;;-0.71;98.02;100815.34;2064353;28;45519;-80
2022/01/08 02:10:08;;;;;;;39.63;20.77;;;;;;;-0.75;98.21;100810.91;2067081;28;45102;-81
2022/01/08 02:11:10;;;;;;;40.83;21.25;;;;;;;-0.72;98.07;100807.44;2064648;28;43265;-80
2022/01/08 02:12:17;;;;;;;42.40;21.85;;;;;;;-0.73;97.98;100816.19;2065530;28;45497;-81
2022/01/08 02:13:26;;;;;;;39.25;19.90;;;;;;;-0.78;98.34;100810.81;2073922;28;45933;-81
2022/01/08 02:14:31;;;;;;;43.47;21.25;;;;;;;-0.80;98.32;100809.91;2074135;28;43353;-80
2022/01/08 02:15:36;;;;;;;43.47;20.60;;;;;;;-0.79;98.33;100815.22;2073047;28;46245;-80
2022/01/08 02:16:38;;;;;;;40.47;20.58;;;;;;;-0.80;98.59;100818.69;2065735;28;44714;-80
2022/01/08 02:17:40;;;;;;;43.03;22.25;;;;;;;-0.81;98.75;100824.81;2072330;28;44283;-80
2022/01/08 02:18:50;;;;;;;39.35;19.92;;;;;;;-0.79;98.36;100816.94;2072500;28;46435;-80
2022/01/08 02:19:54;;;;;;;43.13;20.27;;;;;;;-0.83;98.25;100821.22;2072710;28;44839;-80
2022/01/08 02:20:59;;;;;;;37.60;20.45;;;;;;;-0.83;98.22;100829.13;2073061;28;25475;-80
2022/01/08 02:22:04;;;;;;;37.95;19.27;;;;;;;-0.88;98.40;100825.53;2073806;28;44382;-80
2022/01/08 02:23:06;;;;;;;44.08;22.13;;;;;;;-0.84;98.00;100822.09;2072572;28;45464;-80
2022/01/08 02:24:08;;;;;;;37.63;18.30;;;;;;;-0.89;98.15;100829.00;2071936;28;45017;-80
2022/01/08 02:25:12;;;;;;;40.72;21.35;;;;;;;-0.85;98.84;100822.94;2071371;28;43158;-80
2022/01/08 02:26:14;;;;;;;41.47;20.55;;;;;;;-0.87;98.24;100824.66;2072044;28;29935;-80
2022/01/08 02:27:17;;;;;;;36.45;19.20;;;;;;;-0.90;98.27;100823.69;2072587;28;44677;-80
2022/01/08 02:28:18;;;;;;;35.92;19.77;;;;;;;-0.92;98.02;100830.66;2071704;28;45190;-79
2022/01/08 02:29:24;;;;;;;39.20;20.88;;;;;;;-0.89;98.34;100829.00;2063651;28;45489;-79
2022/01/08 02:30:29;;;;;;;39.75;20.63;;;;;;;-0.90;98.11;100824.56;2056407;28;44717;-79
2022/01/08 02:31:30;;;;;;;37.35;19.20;;;;;;;-0.91;99.00;100822.81;2064223;28;29523;-80
2022/01/08 02:32:32;;;;;;;32.75;18.13;;;;;;;-0.94;99.16;100833.25;2064267;28;43489;-79
2022/01/08 02:33:36;;;;;;;39.15;19.67;;;;;;;-0.98;97.92;100826.16;2064037;28;45303;-78
2022/01/08 02:34:40;;;;;;;38.13;18.73;;;;;;;-1.01;98.38;100831.34;2063610;28;45149;-79
2022/01/08 02:35:42;;;;;;;40.10;20.33;;;;;;;-0.97;97.88;100826.22;2064631;28;20047;-79
2022/01/08 02:36:44;;;;;;;45.65;20.77;;;;;;;-0.94;98.42;100822.75;2063931;28;45672;-79
2022/01/08 02:37:46;;;;;;;38.35;18.58;;;;;;;-0.95;97.96;100828.88;2064404;28;46366;-79
2022/01/08 02:38:48;;;;;;;40.85;20.20;;;;;;;-0.97;98.57;100830.56;2064299;28;42908;-80
2022/01/08 02:39:53;;;;;;;40.58;20.50;;;;;;;-0.96;98.82;100813.94;2064099;28;45500;-80
2022/01/08 02:40:58;;;;;;;43.40;20.20;;;;;;;-0.98;99.25;100820.91;2067270;28;20739;-80
2022/01/08 02:42:00;;;;;;;40.20;19.58;;;;;;;-0.98;98.94;100818.28;2063510;28;44196;-80
2022/01/08 02:43:04;;;;;;;36.97;19.08;;;;;;;-1.02;98.01;100813.84;2064018;28;21005;-80
2022/01/08 02:44:07;;;;;;;37.38;19.55;;;;;;;-1.01;98.01;100815.59;2064146;28;44570;-80
2022/01/08 02:45:09;;;;;;;36.67;20.83;;;;;;;-0.96;98.80;100813.94;2064000;28;44229;-80
2022/01/08 02:46:11;;;;;;;36.80;19.42;;;;;;;-1.01;98.55;100819.09;2064047;28;46089;-81
2022/01/08 02:47:15;;;;;;;40.42;20.20;;;;;;;-0.98;99.27;100816.53;2064208;28;45629;-81
2022/01/08 02:48:17;;;;;;;41.53;20.27;;;;;;;-0.98;98.36;100820.91;2063418;28;45254;-81
2022/01/08 02:49:21;;;;;;;42.58;19.73;;;;;;;-1.00;98.86;100817.38;2056027;28;44515;-80
2022/01/08 02:50:24;;;;;;;41.03;20.17;;;;;;;-0.98;98.49;100815.66;2063747;28;45723;-81
2022/01/08 02:51:26;;;;;;;34.83;18.25;;;;;;;-1.02;98.60;100813.84;2063645;28;44437;-81
2022/01/08 02:52:28;;;;;;;37.67;18.65;;;;;;;-1.04;98.39;100820.75;2063484;28;45424;-81
2022/01/08 02:53:30;;;;;;;43.80;19.58;;;;;;;-1.03;98.28;100814.66;2064116;28;46704;-80
2022/01/08 02:54:32;;;;;;;35.55;19.20;;;;;;;-1.06;99.21;100805.00;2064064;28;44709;-81
2022/01/08 02:55:33;;;;;;;42.15;19.90;;;;;;;-1.00;98.65;100806.88;2063902;28;44046;-80
2022/01/08 02:56:46;;;;;;;35.13;17.10;;;;;;;-1.05;99.13;100813.75;2063673;28;44716;-80
2022/01/08 02:57:48;;;;;;;38.15;18.10;;;;;;;-1.00;98.73;100806.88;2065942;28;24317;-80
2022/01/08 02:58:49;;;;;;;40.83;20.30;;;;;;;-1.00;98.98;100809.50;2072646;28;46405;-80
2022/01/08 02:59:52;;;;;;;38.63;19.52;;;;;;;-0.94;98.94;100814.88;2072419;28;43364;-80
2022/01/08 03:00:57;;;;;;;39.38;18.75;;;;;;;-0.96;98.87;100817.44;2072761;28;29467;-81
2022/01/08 03:01:59;;;;;;;37.92;18.90;;;;;;;-0.99;99.54;100824.38;2064804;28;30637;-80
2022/01/08 03:03:01;;;;;;;37.85;19.40;;;;;;;-1.01;98.58;100820.84;2071855;28;44636;-80
2022/01/08 03:04:05;;;;;;;45.10;19.30;;;;;;;-1.01;98.63;100826.09;2071090;28;44467;-80
2022/01/08 03:05:10;;;;;;;36.05;17.45;;;;;;;-1.03;99.18;100827.81;2072418;28;23596;-80
2022/01/08 03:06:12;;;;;;;39.78;18.83;;;;;;;-0.98;99.25;100820.91;2078505;28;45513;-81
2022/01/08 03:07:14;;;;;;;40.28;18.92;;;;;;;-0.96;98.83;100829.72;2066680;28;45141;-80
2022/01/08 03:08:16;;;;;;;39.03;18.13;;;;;;;-0.96;98.46;100821.84;2063934;28;43997;-80
2022/01/08 03:09:18;;;;;;;44.72;19.30;;;;;;;-0.94;99.23;100827.13;2064076;28;44027;-80
2022/01/08 03:10:19;;;;;;;36.17;17.67;;;;;;;-0.91;99.55;100825.44;2063669;28;45859;-79
2022/01/08 03:11:21;;;;;;;38.15;18.85;;;;;;;-0.87;99.38;100821.16;2064626;28;45480;-79
2022/01/08 03:12:27;;;;;;;39.15;18.30;;;;;;;-0.81;99.67;100829.16;2063767;28;46489;-79
2022/01/08 03:13:29;;;;;;;44.10;18.40;;;;;;;-0.79;98.76;100823.09;2063989;28;44835;-79
2022/01/08 03:14:31;;;;;;;39.40;19.75;;;;;;;-0.76;98.96;100819.63;2063533;28;44406;-79
2022/01/08 03:15:36;;;;;;;40.00;19.30;;;;;;;-0.75;99.58;100816.16;2064573;28;30688;-78
2022/01/08 03:16:38;;;;;;;36.67;17.98;;;;;;;-0.74;99.56;100823.16;2063661;28;45314;-79
2022/01/08 03:17:43;;;;;;;37.28;17.95;;;;;;;-0.70;98.82;100827.66;2064124;28;46211;-79
2022/01/08 03:18:47;;;;;;;35.42;17.70;;;;;;;-0.68;98.69;100825.94;2063377;28;44517;-79
2022/01/08 03:19:52;;;;;;;37.53;17.40;;;;;;;-0.69;98.94;100824.16;2063845;28;44572;-79
2022/01/08 03:21:01;;;;;;;36.15;17.60;;;;;;;-0.66;98.88;100824.22;2063491;28;33027;-79
2022/01/08 03:22:06;;;;;;;34.33;17.42;;;;;;;-0.64;99.42;100832.16;2063095;28;44420;-79
2022/01/08 03:23:13;;;;;;;43.85;18.27;;;;;;;-0.63;98.63;100829.56;2063942;28;45133;-78
2022/01/08 03:24:17;;;;;;;38.60;16.73;;;;;;;-0.58;98.86;100827.88;2063459;28;44784;-78
2022/01/08 03:25:18;;;;;;;35.70;17.48;;;;;;;-0.58;98.66;100827.88;2063153;28;42901;-79
2022/01/08 03:26:25;;;;;;;38.00;17.70;;;;;;;-0.57;99.11;100828.81;2063729;28;30111;-78
2022/01/08 03:27:27;;;;;;;36.03;17.70;;;;;;;-0.56;99.27;100814.78;2064268;28;42627;-78
2022/01/08 03:28:29;;;;;;;32.97;17.10;;;;;;;-0.56;98.64;100825.28;2070743;28;45442;-79
2022/01/08 03:29:31;;;;;;;39.83;18.35;;;;;;;-0.52;98.97;100814.00;2064434;28;27760;-78
2022/01/08 03:30:34;;;;;;;32.65;16.92;;;;;;;-0.55;99.26;100808.69;2063631;28;43940;-79
2022/01/08 03:31:36;;;;;;;38.03;17.83;;;;;;;-0.55;98.58;100807.81;2063359;28;46485;-78
2022/01/08 03:32:39;;;;;;;35.28;16.27;;;;;;;-0.56;98.95;100806.88;2063465;28;43152;-79
2022/01/08 03:33:42;;;;;;;33.13;16.67;;;;;;;-0.58;98.42;100806.84;2063539;28;44551;-79
2022/01/08 03:34:44;;;;;;;36.28;16.67;;;;;;;-0.64;99.02;100801.47;2063798;28;46045;-79
2022/01/08 03:35:45;;;;;;;32.42;16.95;;;;;;;-0.69;98.62;100800.50;2063622;28;45599;-79
2022/01/08 03:36:49;;;;;;;32.13;15.57;;;;;;;-0.71;98.57;100796.97;2063449;28;44015;-80
2022/01/08 03:37:51;;;;;;;38.13;16.92;;;;;;;-0.70;98.07;100809.25;2064140;28;43271;-79
2022/01/08 03:38:53;;;;;;;33.67;16.98;;;;;;;-0.75;98.23;100805.66;2063432;28;45787;-79
2022/01/08 03:39:55;;;;;;;30.75;16.15;;;;;;;-0.73;97.85;100800.44;2063009;28;45865;-80
2022/01/08 03:40:57;;;;;;;34.47;16.42;;;;;;;-0.75;98.63;100799.47;2055430;28;45235;-80
2022/01/08 03:41:59;;;;;;;35.10;17.60;;;;;;;-0.73;98.88;100795.16;2063224;28;45201;-80
2022/01/08 03:43:00;;;;;;;35.53;17.65;;;;;;;-0.76;98.30;100798.59;2064211;28;30964;-80
2022/01/08 03:44:03;;;;;;;38.58;18.60;;;;;;;-0.80;98.25;100802.91;2064110;28;37279;-79
2022/01/08 03:45:06;;;;;;;35.40;17.50;;;;;;;-0.83;97.95;100794.94;2063342;28;46281;-80
2022/01/08 03:46:10;;;;;;;32.40;16.67;;;;;;;-0.88;98.54;100788.72;2064709;28;26124;-80
2022/01/08 03:49:35;;;;;;;34.58;17.70;;;;;;;-0.98;98.23;100785.00;2063925;28;45570;-81
2022/01/08 03:50:36;;;;;;;34.25;16.50;;;;;;;-1.02;98.62;100780.53;2063799;28;45122;-81
2022/01/08 03:51:39;;;;;;;36.60;18.25;;;;;;;-0.99;98.49;100780.63;2063843;28;43255;-81
2022/01/08 03:52:41;;;;;;;39.33;19.10;;;;;;;-1.00;97.96;100786.72;2063521;28;44427;-81
2022/01/08 03:53:42;;;;;;;42.15;18.15;;;;;;;-1.05;98.77;100779.59;2063898;28;39923;-81
2022/01/08 03:54:44;;;;;;;40.22;19.55;;;;;;;-1.05;98.84;100784.84;2063805;28;31500;-80
2022/01/08 03:55:46;;;;;;;39.80;19.42;;;;;;;-1.04;98.19;100779.63;2063103;28;46507;-81
2022/01/08 03:56:49;;;;;;;39.47;19.95;;;;;;;-1.05;98.98;100777.84;2063418;28;43441;-80
2022/01/08 03:57:51;;;;;;;38.17;17.75;;;;;;;-1.11;98.90;100776.81;2064004;28;44301;-80
2022/01/08 03:58:53;;;;;;;39.10;18.33;;;;;;;-1.10;98.54;100770.72;2063605;28;46071;-80
2022/01/08 03:59:56;;;;;;;36.83;18.27;;;;;;;-1.09;98.25;100780.41;2065935;28;27044;-80
2022/01/08 04:00:57;;;;;;;36.30;19.27;;;;;;;-1.15;98.41;100786.38;2072105;28;45309;-80
2022/01/08 04:01:59;;;;;;;46.10;20.23;;;;;;;-1.09;98.88;100790.91;2071722;28;43673;-80
2022/01/08 04:03:04;;;;;;;44.72;20.65;;;;;;;-1.13;98.36;100789.03;2070769;28;44436;-80
2022/01/08 04:04:05;;;;;;;47.85;19.70;;;;;;;-1.12;98.86;100780.31;2070703;28;45828;-80
2022/01/08 04:05:08;;;;;;;44.60;20.42;;;;;;;-1.16;98.98;100789.88;2071248;28;45644;-80
2022/01/08 04:06:09;;;;;;;46.30;20.17;;;;;;;-1.17;99.08;100794.25;2071819;28;25967;-80
2022/01/08 04:07:11;;;;;;;43.50;20.65;;;;;;;-1.21;99.05;100789.75;2067594;28;43464;-81
2022/01/08 04:08:14;;;;;;;40.80;19.38;;;;;;;-1.18;98.92;100794.19;2064055;28;45446;-80
2022/01/08 04:09:16;;;;;;;39.72;20.33;;;;;;;-1.19;99.21;100785.41;2062773;28;46514;-80
2022/01/08 04:10:18;;;;;;;47.97;21.60;;;;;;;-1.20;99.51;100801.16;2062953;28;44428;-80
2022/01/08 04:11:20;;;;;;;42.63;19.63;;;;;;;-1.20;98.48;100795.91;2063572;28;45409;-80
2022/01/08 04:12:32;;;;;;;45.88;21.15;;;;;;;-1.18;99.08;100796.84;2063679;28;44841;-80
2022/01/08 04:13:36;;;;;;;53.25;20.98;;;;;;;-1.15;99.34;100789.00;2063651;28;44129;-80
2022/01/08 04:14:52;;;;;;;50.08;22.33;;;;;;;-1.18;98.91;100794.19;2063608;28;46470;-80
2022/01/08 04:16:10;;;;;;;48.20;21.98;;;;;;;-1.19;98.61;100785.41;2063967;28;42408;-80
2022/01/08 04:17:14;;;;;;;52.67;22.40;;;;;;;-1.21;99.26;100795.00;2063733;28;45558;-80
2022/01/08 04:18:15;;;;;;;50.30;22.73;;;;;;;-1.24;99.17;100788.78;2062586;28;44940;-79
2022/01/08 04:19:19;;;;;;;48.53;20.90;;;;;;;-1.23;99.69;100791.47;2063514;28;43888;-79
2022/01/08 04:20:22;;;;;;;46.28;21.40;;;;;;;-1.23;99.17;100798.47;2070694;28;46563;-79
2022/01/08 04:22:28;;;;;;;52.63;22.67;;;;;;;-1.21;98.70;100808.13;2055452;28;44052;-79
2022/01/08 04:23:29;;;;;;;45.53;21.27;;;;;;;-1.25;98.94;100805.44;2070661;28;45697;-78
2022/01/08 04:24:31;;;;;;;47.63;22.40;;;;;;;-1.24;99.64;100812.44;2063634;28;45490;-79
2022/01/08 04:25:33;;;;;;;53.97;24.00;;;;;;;-1.26;99.29;100809.75;2063627;28;44219;-79
2022/01/08 04:26:36;;;;;;;53.25;23.08;;;;;;;-1.25;98.73;100811.56;2063429;28;44271;-79
2022/01/08 04:27:40;;;;;;;54.50;23.33;;;;;;;-1.28;99.02;100821.97;2063618;28;27301;-79
2022/01/08 04:28:42;;;;;;;53.10;23.13;;;;;;;-1.27;98.58;100821.16;2070125;28;45593;-78
2022/01/08 04:29:43;;;;;;;60.03;24.88;;;;;;;-1.24;98.54;100821.22;2071046;28;43342;-78
2022/01/08 04:30:45;;;;;;;60.40;25.27;;;;;;;-1.19;99.35;100822.19;2072170;28;36450;-78
2022/01/08 04:31:47;;;;;;;64.82;24.45;;;;;;;-1.14;99.81;100826.69;2072289;28;44733;-78
2022/01/08 04:32:49;;;;;;;54.58;24.17;;;;;;;-1.12;99.05;100823.22;2070898;28;43825;-78
2022/01/08 04:33:53;;;;;;;61.95;25.60;;;;;;;-1.07;100.00;100831.22;2066335;28;45351;-78
2022/01/08 04:34:55;;;;;;;64.68;26.05;;;;;;;-1.05;99.62;100821.63;2071052;28;44486;-77
2022/01/08 04:35:57;;;;;;;60.72;24.77;;;;;;;-1.01;99.93;100816.47;2072047;28;31395;-77
2022/01/08 04:36:58;;;;;;;62.80;26.38;;;;;;;-0.97;99.94;100817.41;2071698;28;44941;-77
2022/01/08 04:38:00;;;;;;;61.85;26.20;;;;;;;-0.94;99.77;100819.25;2072044;28;44158;-77
2022/01/08 04:39:02;;;;;;;60.78;26.55;;;;;;;-0.92;99.18;100821.03;2071780;28;35081;-77
2022/01/08 04:40:05;;;;;;;63.67;26.25;;;;;;;-0.90;99.03;100819.31;2071445;28;43111;-77
2022/01/08 04:41:07;;;;;;;52.78;23.92;;;;;;;-0.88;99.42;100817.66;2071493;28;44523;-77
2022/01/08 04:42:09;;;;;;;53.50;23.77;;;;;;;-0.86;99.58;100820.28;2071540;28;45673;-76
2022/01/08 04:43:11;;;;;;;58.38;25.88;;;;;;;-0.84;99.06;100819.47;2070433;28;45528;-77
2022/01/08 04:44:13;;;;;;;59.38;26.92;;;;;;;-0.80;99.99;100816.03;2068885;28;45350;-77
2022/01/08 04:45:15;;;;;;;62.42;26.73;;;;;;;-0.79;100.00;100817.84;2061965;28;43098;-77
2022/01/08 04:46:16;;;;;;;64.40;26.67;;;;;;;-0.76;99.34;100817.00;2063883;28;44330;-77
2022/01/08 04:47:18;;;;;;;62.60;27.10;;;;;;;-0.74;99.65;100820.53;2072521;28;44773;-77
2022/01/08 04:48:21;;;;;;;60.90;26.63;;;;;;;-0.73;99.96;100819.69;2071993;28;45602;-77
2022/01/08 04:49:26;;;;;;;67.50;27.50;;;;;;;-0.67;99.87;100817.19;2065003;28;36192;-77
2022/01/08 04:50:29;;;;;;;61.38;26.92;;;;;;;-0.66;99.75;100815.47;2064497;28;44470;-77
2022/01/08 04:51:31;;;;;;;62.13;27.65;;;;;;;-0.67;99.63;100817.19;2072235;28;44292;-78
2022/01/08 04:52:33;;;;;;;63.13;27.65;;;;;;;-0.66;99.09;100813.72;2072610;28;27369;-77
2022/01/08 04:53:35;;;;;;;59.55;27.80;;;;;;;-0.63;99.62;100820.75;2072838;28;45439;-77
2022/01/08 04:54:37;;;;;;;63.10;27.98;;;;;;;-0.63;98.70;100823.41;2071761;28;45593;-77
2022/01/08 04:55:39;;;;;;;58.58;28.35;;;;;;;-0.62;99.47;100817.28;2071714;28;46261;-77
2022/01/08 04:56:40;;;;;;;62.65;27.75;;;;;;;-0.58;99.40;100824.38;2072527;28;43891;-78
2022/01/08 04:57:43;;;;;;;50.78;23.30;;;;;;;-0.60;99.40;100826.09;2069930;28;44905;-77
2022/01/08 04:58:47;;;;;;;56.08;27.17;;;;;;;-0.59;99.37;100827.88;2064349;28;44575;-78
2022/01/08 04:59:49;;;;;;;65.07;27.63;;;;;;;-0.55;98.80;100827.09;2063919;28;45202;-78
2022/01/08 05:00:50;;;;;;;60.97;28.33;;;;;;;-0.56;99.46;100825.28;2063899;28;44416;-78
2022/01/08 05:01:52;;;;;;;57.60;27.98;;;;;;;-0.55;98.84;100826.22;2072493;28;45340;-78
2022/01/08 05:02:54;;;;;;;63.10;29.23;;;;;;;-0.51;99.53;100828.03;2071937;28;46605;-78
2022/01/08 05:03:57;;;;;;;62.10;27.35;;;;;;;-0.51;99.09;100838.56;2074194;28;29610;-78
2022/01/08 05:04:58;;;;;;;54.30;25.95;;;;;;;-0.53;99.19;100830.63;2063847;28;45751;-77
2022/01/08 05:06:00;;;;;;;54.03;27.10;;;;;;;-0.54;98.87;100834.09;2064143;28;44656;-78
2022/01/08 05:07:02;;;;;;;55.85;26.67;;;;;;;-0.56;99.26;100835.81;2072213;28;45610;-78